createdAt,value
2017-05-14T00:00:26.952Z,17.33
2017-05-14T00:01:35.912Z,17.23
2017-05-14T00:02:44.875Z,17.26
2017-05-14T00:03:54.414Z,17.22
2017-05-14T00:05:03.422Z,17.21
2017-05-14T00:06:12.380Z,17.25
2017-05-14T00:07:21.337Z,17.23
2017-05-14T00:08:30.302Z,17.19
2017-05-14T00:09:39.654Z,17.25
2017-05-14T00:10:48.948Z,17.18
2017-05-14T00:11:57.909Z,17.19
2017-05-14T00:13:06.869Z,17.23
2017-05-14T00:14:15.832Z,17.19
2017-05-14T00:15:25.097Z,17.3
2017-05-14T00:16:34.069Z,17.18
2017-05-14T00:17:43.116Z,17.18
2017-05-14T00:18:52.162Z,17.25
2017-05-14T00:20:01.124Z,17.14
2017-05-14T00:21:10.382Z,17.19
2017-05-14T00:22:19.350Z,17.22
2017-05-14T00:23:28.310Z,17.22
2017-05-14T00:24:37.590Z,17.16
2017-05-14T00:25:46.637Z,17.18
2017-05-14T00:26:55.851Z,17.16
2017-05-14T00:28:04.815Z,17.16
2017-05-14T00:29:13.772Z,17.26
2017-05-14T00:30:22.731Z,17.16
2017-05-14T00:31:31.689Z,17.18
2017-05-14T00:32:40.967Z,17.19
2017-05-14T00:33:50.019Z,17.22
2017-05-14T00:34:58.987Z,17.21
2017-05-14T00:36:07.953Z,17.22
2017-05-14T00:37:16.995Z,17.25
2017-05-14T00:38:26.342Z,17.22
2017-05-14T00:39:35.386Z,17.21
2017-05-14T00:40:44.366Z,17.16
2017-05-14T00:41:53.644Z,17.22
2017-05-14T00:43:02.603Z,17.19
2017-05-14T00:44:11.866Z,17.19
2017-05-14T00:45:20.826Z,17.19
2017-05-14T00:46:29.788Z,17.16
2017-05-14T00:47:38.844Z,17.16
2017-05-14T00:48:47.889Z,17.12
2017-05-14T00:49:57.159Z,17.16
2017-05-14T00:51:06.117Z,17.14
2017-05-14T00:52:15.076Z,17.07
2017-05-14T00:53:24.123Z,17
2017-05-14T00:54:33.082Z,17.08
2017-05-14T00:55:42.345Z,16.98
2017-05-14T00:56:51.393Z,16.98
2017-05-14T00:58:00.349Z,16.94
2017-05-14T00:59:09.303Z,16.94
2017-05-14T01:00:18.267Z,16.96
2017-05-14T01:01:27.524Z,17.01
2017-05-14T01:02:36.482Z,16.96
2017-05-14T01:03:45.450Z,16.94
2017-05-14T01:04:54.413Z,16.96
2017-05-14T01:06:03.412Z,16.88
2017-05-14T01:07:12.674Z,16.97
2017-05-14T01:08:21.736Z,16.91
2017-05-14T01:09:30.704Z,16.85
2017-05-14T01:10:39.662Z,16.93
2017-05-14T01:11:48.620Z,16.89
2017-05-14T01:12:57.832Z,16.86
2017-05-14T01:14:06.794Z,16.88
2017-05-14T01:15:15.749Z,16.86
2017-05-14T01:16:24.712Z,16.85
2017-05-14T01:17:33.674Z,16.78
2017-05-14T01:18:42.979Z,16.78
2017-05-14T01:19:51.937Z,16.78
2017-05-14T01:21:00.903Z,16.78
2017-05-14T01:22:09.869Z,16.78
2017-05-14T01:23:18.875Z,16.71
2017-05-14T01:24:28.135Z,16.73
2017-05-14T01:25:37.101Z,16.76
2017-05-14T01:26:46.062Z,16.73
2017-05-14T01:27:55.354Z,16.76
2017-05-14T01:29:04.316Z,16.73
2017-05-14T01:30:13.527Z,16.68
2017-05-14T01:31:22.493Z,16.7
2017-05-14T01:32:31.453Z,16.7
2017-05-14T01:33:40.415Z,16.7
2017-05-14T01:34:49.370Z,16.58
2017-05-14T01:35:58.631Z,16.7
2017-05-14T01:37:07.590Z,16.64
2017-05-14T01:38:16.551Z,16.61
2017-05-14T01:39:25.564Z,16.6
2017-05-14T01:40:34.526Z,16.57
2017-05-14T01:41:43.731Z,16.48
2017-05-14T01:42:52.689Z,16.5
2017-05-14T01:44:01.647Z,16.52
2017-05-14T01:45:10.610Z,16.57
2017-05-14T01:46:19.571Z,16.57
2017-05-14T01:47:28.839Z,16.57
2017-05-14T01:48:37.853Z,16.49
2017-05-14T01:49:46.817Z,16.46
2017-05-14T01:50:55.784Z,16.43
2017-05-14T01:52:04.738Z,16.46
2017-05-14T01:53:14.002Z,16.43
2017-05-14T01:54:22.978Z,16.42
2017-05-14T01:55:31.934Z,16.45
2017-05-14T01:56:40.891Z,16.45
2017-05-14T01:57:49.854Z,16.43
2017-05-14T01:58:59.065Z,16.43
2017-05-14T02:00:08.023Z,16.45
2017-05-14T02:01:16.988Z,16.46
2017-05-14T02:02:25.951Z,16.43
2017-05-14T02:03:34.910Z,16.42
2017-05-14T02:04:44.121Z,16.42
2017-05-14T02:05:53.083Z,16.35
2017-05-14T02:07:02.054Z,16.39
2017-05-14T02:08:11.013Z,16.28
2017-05-14T02:09:19.977Z,16.41
2017-05-14T02:10:29.233Z,16.33
2017-05-14T02:11:38.194Z,16.39
2017-05-14T02:12:47.159Z,16.35
2017-05-14T02:13:56.118Z,16.39
2017-05-14T02:15:05.074Z,16.39
2017-05-14T02:16:14.331Z,16.41
2017-05-14T02:17:23.287Z,16.35
2017-05-14T02:18:32.247Z,16.41
2017-05-14T02:19:41.259Z,16.28
2017-05-14T02:20:50.224Z,16.34
2017-05-14T02:21:59.428Z,16.34
2017-05-14T02:23:08.389Z,16.3
2017-05-14T02:24:17.692Z,16.25
2017-05-14T02:25:26.652Z,16.35
2017-05-14T02:26:35.618Z,16.25
2017-05-14T02:27:44.843Z,16.23
2017-05-14T02:28:53.804Z,16.12
2017-05-14T02:30:02.765Z,16.12
2017-05-14T02:31:11.721Z,16.12
2017-05-14T02:32:20.680Z,16.12
2017-05-14T02:33:29.935Z,16.14
2017-05-14T02:34:38.894Z,16.2
2017-05-14T02:35:47.853Z,16.17
2017-05-14T02:36:56.815Z,16.14
2017-05-14T02:38:05.778Z,16.2
2017-05-14T02:39:15.035Z,16.21
2017-05-14T02:40:23.993Z,16.11
2017-05-14T02:41:32.950Z,16.2
2017-05-14T02:42:41.920Z,16.17
2017-05-14T02:43:50.887Z,16.14
2017-05-14T02:45:00.106Z,16.09
2017-05-14T02:46:09.070Z,16.23
2017-05-14T02:47:18.025Z,16.09
2017-05-14T02:48:26.980Z,16.12
2017-05-14T02:49:35.946Z,16.21
2017-05-14T02:50:45.208Z,16.21
2017-05-14T02:51:54.169Z,16.14
2017-05-14T02:53:03.129Z,16.21
2017-05-14T02:54:12.094Z,16.17
2017-05-14T02:55:21.050Z,16.17
2017-05-14T02:56:30.305Z,16.15
2017-05-14T02:57:39.275Z,16.17
2017-05-14T02:58:48.242Z,16.14
2017-05-14T02:59:57.526Z,16.12
2017-05-14T03:01:06.486Z,16.17
2017-05-14T03:02:15.784Z,16.21
2017-05-14T03:03:24.738Z,16.23
2017-05-14T03:04:33.695Z,16.14
2017-05-14T03:05:42.659Z,16.24
2017-05-14T03:06:51.618Z,16.2
2017-05-14T03:08:00.832Z,16.17
2017-05-14T03:09:09.791Z,16.24
2017-05-14T03:10:18.752Z,16.15
2017-05-14T03:11:27.711Z,16.11
2017-05-14T03:12:36.675Z,16.14
2017-05-14T03:13:45.891Z,16.15
2017-05-14T03:14:54.855Z,16.14
2017-05-14T03:16:03.865Z,16.12
2017-05-14T03:17:12.824Z,16.11
2017-05-14T03:18:21.785Z,16.09
2017-05-14T03:19:31.043Z,16.07
2017-05-14T03:20:40.002Z,16.12
2017-05-14T03:21:48.966Z,16.14
2017-05-14T03:22:57.924Z,16.14
2017-05-14T03:24:07.214Z,16.12
2017-05-14T03:25:16.424Z,16.09
2017-05-14T03:26:25.468Z,16.14
2017-05-14T03:27:34.432Z,16.11
2017-05-14T03:28:43.405Z,16.09
2017-05-14T03:29:52.373Z,16.2
2017-05-14T03:31:01.581Z,16.15
2017-05-14T03:32:10.534Z,16.12
2017-05-14T03:33:19.490Z,15.96
2017-05-14T03:34:28.456Z,16.09
2017-05-14T03:35:37.416Z,16.15
2017-05-14T03:36:46.624Z,16.07
2017-05-14T03:37:55.582Z,16.21
2017-05-14T03:39:04.542Z,16.07
2017-05-14T03:40:13.501Z,16.15
2017-05-14T03:41:22.455Z,16.14
2017-05-14T03:42:31.665Z,16.17
2017-05-14T03:43:40.622Z,16.15
2017-05-14T03:44:49.592Z,16.12
2017-05-14T03:45:58.559Z,16.09
2017-05-14T03:47:07.526Z,16.15
2017-05-14T03:48:16.734Z,16.15
2017-05-14T03:49:25.699Z,16.11
2017-05-14T03:50:34.662Z,16.21
2017-05-14T03:51:43.625Z,16.09
2017-05-14T03:52:52.586Z,16.12
2017-05-14T03:54:01.812Z,16.17
2017-05-14T03:55:10.771Z,16.15
2017-05-14T03:56:19.734Z,16.12
2017-05-14T03:57:28.695Z,16.04
2017-05-14T03:58:37.652Z,16.17
2017-05-14T03:59:46.911Z,16.08
2017-05-14T04:00:55.916Z,16.07
2017-05-14T04:02:04.872Z,16.12
2017-05-14T04:03:13.833Z,16.12
2017-05-14T04:04:22.784Z,16.14
2017-05-14T04:05:31.993Z,16.17
2017-05-14T04:06:40.946Z,16.12
2017-05-14T04:07:49.910Z,16.07
2017-05-14T04:08:58.874Z,16
2017-05-14T04:10:07.837Z,16.07
2017-05-14T04:11:17.040Z,16.08
2017-05-14T04:12:25.998Z,16.05
2017-05-14T04:13:34.962Z,16.05
2017-05-14T04:14:43.925Z,16.08
2017-05-14T04:15:52.888Z,16.09
2017-05-14T04:17:02.425Z,16.12
2017-05-14T04:18:11.390Z,16.2
2017-05-14T04:19:20.366Z,16.2
2017-05-14T04:20:29.377Z,16.17
2017-05-14T04:21:38.338Z,16.09
2017-05-14T04:22:47.547Z,16.21
2017-05-14T04:23:56.557Z,16.24
2017-05-14T04:25:05.516Z,16.09
2017-05-14T04:26:14.477Z,16.05
2017-05-14T04:27:23.434Z,16.09
2017-05-14T04:28:32.736Z,16.2
2017-05-14T04:29:41.703Z,16.17
2017-05-14T04:30:50.657Z,16.2
2017-05-14T04:31:59.617Z,16.17
2017-05-14T04:33:08.583Z,16.15
2017-05-14T04:34:17.789Z,16.28
2017-05-14T04:35:26.756Z,16.3
2017-05-14T04:36:35.718Z,16.25
2017-05-14T04:37:44.681Z,16.28
2017-05-14T04:38:53.642Z,16.35
2017-05-14T04:40:02.853Z,16.33
2017-05-14T04:41:11.811Z,16.38
2017-05-14T04:42:20.767Z,16.33
2017-05-14T04:43:29.730Z,16.34
2017-05-14T04:44:38.690Z,16.42
2017-05-14T04:45:47.903Z,16.39
2017-05-14T04:46:57.196Z,16.35
2017-05-14T04:48:06.156Z,16.42
2017-05-14T04:49:15.118Z,16.5
2017-05-14T04:50:24.077Z,16.45
2017-05-14T04:51:33.281Z,16.56
2017-05-14T04:52:42.241Z,16.53
2017-05-14T04:53:51.199Z,16.53
2017-05-14T04:55:00.171Z,16.53
2017-05-14T04:56:09.123Z,16.56
2017-05-14T04:57:18.341Z,16.53
2017-05-14T04:58:27.304Z,16.56
2017-05-14T04:59:36.264Z,16.45
2017-05-14T05:00:45.222Z,16.58
2017-05-14T05:01:54.183Z,16.53
2017-05-14T05:03:03.393Z,16.6
2017-05-14T05:04:12.399Z,16.57
2017-05-14T05:05:21.359Z,16.57
2017-05-14T05:06:30.316Z,16.5
2017-05-14T05:07:39.280Z,16.57
2017-05-14T05:08:48.491Z,16.57
2017-05-14T05:09:57.779Z,16.58
2017-05-14T05:11:06.739Z,16.53
2017-05-14T05:12:15.702Z,16.57
2017-05-14T05:13:24.700Z,16.57
2017-05-14T05:14:33.908Z,16.48
2017-05-14T05:15:42.868Z,16.5
2017-05-14T05:16:51.824Z,16.52
2017-05-14T05:18:00.781Z,16.56
2017-05-14T05:19:09.734Z,16.53
2017-05-14T05:20:18.946Z,16.52
2017-05-14T05:21:27.902Z,16.52
2017-05-14T05:22:36.886Z,16.5
2017-05-14T05:23:46.169Z,16.46
2017-05-14T05:24:55.128Z,16.6
2017-05-14T05:26:04.338Z,16.46
2017-05-14T05:27:13.307Z,16.39
2017-05-14T05:28:22.271Z,16.39
2017-05-14T05:29:31.227Z,16.39
2017-05-14T05:30:40.187Z,16.45
2017-05-14T05:31:49.394Z,16.43
2017-05-14T05:32:58.356Z,16.46
2017-05-14T05:34:07.319Z,16.48
2017-05-14T05:35:16.283Z,16.45
2017-05-14T05:36:25.239Z,16.43
2017-05-14T05:37:34.806Z,16.42
2017-05-14T05:38:43.773Z,16.43
2017-05-14T05:39:52.744Z,16.49
2017-05-14T05:41:01.705Z,16.45
2017-05-14T05:42:10.658Z,16.48
2017-05-14T05:43:19.915Z,16.46
2017-05-14T05:44:28.880Z,16.48
2017-05-14T05:45:38.162Z,16.43
2017-05-14T05:46:47.207Z,16.42
2017-05-14T05:47:56.158Z,16.34
2017-05-14T05:49:20.232Z,16.34
2017-05-14T05:50:29.202Z,16.49
2017-05-14T05:51:38.167Z,16.56
2017-05-14T05:52:47.126Z,16.5
2017-05-14T05:53:56.085Z,16.52
2017-05-14T05:55:05.340Z,16.52
2017-05-14T05:56:14.303Z,16.48
2017-05-14T05:57:23.264Z,16.52
2017-05-14T05:58:32.225Z,16.56
2017-05-14T05:59:41.182Z,16.5
2017-05-14T06:00:50.444Z,16.46
2017-05-14T06:01:59.407Z,16.5
2017-05-14T06:03:08.368Z,16.53
2017-05-14T06:04:17.323Z,16.63
2017-05-14T06:05:26.284Z,16.57
2017-05-14T06:06:35.495Z,16.64
2017-05-14T06:07:44.820Z,16.66
2017-05-14T06:08:53.775Z,16.67
2017-05-14T06:10:02.727Z,16.67
2017-05-14T06:11:11.688Z,16.68
2017-05-14T06:12:20.899Z,16.7
2017-05-14T06:13:29.855Z,16.73
2017-05-14T06:14:38.819Z,16.7
2017-05-14T06:15:47.773Z,16.78
2017-05-14T06:16:56.734Z,16.75
2017-05-14T06:18:05.944Z,16.78
2017-05-14T06:19:14.907Z,16.78
2017-05-14T06:20:23.870Z,16.88
2017-05-14T06:21:32.825Z,16.86
2017-05-14T06:22:41.792Z,16.86
2017-05-14T06:23:51.058Z,16.88
2017-05-14T06:25:00.021Z,16.91
2017-05-14T06:26:08.984Z,16.93
2017-05-14T06:27:17.944Z,16.97
2017-05-14T06:28:26.902Z,17
2017-05-14T06:29:36.109Z,17.01
2017-05-14T06:30:45.150Z,17.01
2017-05-14T06:31:54.114Z,17.11
2017-05-14T06:33:03.072Z,17.16
2017-05-14T06:34:12.029Z,17.12
2017-05-14T06:35:21.240Z,17.12
2017-05-14T06:36:30.200Z,17.08
2017-05-14T06:37:39.156Z,17.06
2017-05-14T06:38:48.110Z,17.15
2017-05-14T06:39:57.400Z,17.15
2017-05-14T06:41:06.615Z,17.12
2017-05-14T06:42:15.576Z,17.18
2017-05-14T06:43:24.547Z,17.25
2017-05-14T06:44:33.513Z,17.3
2017-05-14T06:45:42.471Z,17.31
2017-05-14T06:46:51.689Z,17.3
2017-05-14T06:48:00.971Z,17.4
2017-05-14T06:49:09.935Z,17.49
2017-05-14T06:50:18.889Z,17.44
2017-05-14T06:51:28.169Z,17.49
2017-05-14T06:52:37.380Z,17.52
2017-05-14T06:53:46.336Z,17.52
2017-05-14T06:54:55.298Z,17.52
2017-05-14T06:56:04.258Z,17.46
2017-05-14T06:57:13.212Z,17.59
2017-05-14T06:58:22.422Z,17.62
2017-05-14T06:59:31.385Z,17.52
2017-05-14T07:00:40.391Z,17.64
2017-05-14T07:01:49.350Z,17.62
2017-05-14T07:02:58.308Z,17.63
2017-05-14T07:04:07.565Z,17.68
2017-05-14T07:05:16.525Z,17.7
2017-05-14T07:06:25.531Z,17.77
2017-05-14T07:07:34.494Z,17.78
2017-05-14T07:08:43.459Z,17.78
2017-05-14T07:09:52.670Z,17.77
2017-05-14T07:11:01.633Z,17.78
2017-05-14T07:12:10.599Z,17.75
2017-05-14T07:13:19.554Z,17.86
2017-05-14T07:14:28.517Z,17.9
2017-05-14T07:15:37.723Z,17.97
2017-05-14T07:16:46.685Z,18.05
2017-05-14T07:17:55.648Z,18.05
2017-05-14T07:19:04.607Z,18.1
2017-05-14T07:20:13.569Z,18.05
2017-05-14T07:21:22.776Z,18.08
2017-05-14T07:22:31.745Z,18.14
2017-05-14T07:23:40.701Z,18.1
2017-05-14T07:24:49.676Z,18.26
2017-05-14T07:25:58.633Z,18.26
2017-05-14T07:27:07.894Z,18.37
2017-05-14T07:28:16.860Z,18.44
2017-05-14T07:29:25.827Z,18.35
2017-05-14T07:30:34.781Z,18.44
2017-05-14T07:31:43.741Z,18.55
2017-05-14T07:32:53.045Z,18.66
2017-05-14T07:34:02.008Z,18.65
2017-05-14T07:35:10.969Z,18.62
2017-05-14T07:36:19.926Z,18.67
2017-05-14T07:37:28.891Z,18.73
2017-05-14T07:38:38.098Z,18.78
2017-05-14T07:39:47.063Z,18.84
2017-05-14T07:40:56.016Z,18.94
2017-05-14T07:42:05.003Z,18.98
2017-05-14T07:43:14.285Z,18.99
2017-05-14T07:44:23.498Z,19.06
2017-05-14T07:45:32.459Z,19.1
2017-05-14T07:46:41.420Z,19.1
2017-05-14T07:47:50.377Z,19.16
2017-05-14T07:48:59.350Z,19.32
2017-05-14T07:50:08.650Z,19.31
2017-05-14T07:51:17.609Z,19.44
2017-05-14T07:52:26.654Z,19.39
2017-05-14T07:53:35.790Z,19.51
2017-05-14T07:54:44.752Z,19.58
2017-05-14T07:55:53.962Z,19.56
2017-05-14T07:57:02.929Z,19.68
2017-05-14T07:58:11.886Z,19.76
2017-05-14T07:59:20.844Z,19.65
2017-05-14T08:00:29.807Z,19.77
2017-05-14T08:01:39.019Z,19.78
2017-05-14T08:02:47.982Z,19.77
2017-05-14T08:03:57.274Z,19.91
2017-05-14T08:05:06.241Z,19.91
2017-05-14T08:06:15.208Z,19.95
2017-05-14T08:07:24.416Z,20.01
2017-05-14T08:08:33.420Z,20.1
2017-05-14T08:09:42.378Z,20.06
2017-05-14T08:10:51.374Z,20.06
2017-05-14T08:12:00.379Z,20.03
2017-05-14T08:13:09.592Z,20.13
2017-05-14T08:14:18.640Z,20.11
2017-05-14T08:15:27.601Z,20.17
2017-05-14T08:16:36.653Z,20.1
2017-05-14T08:17:45.618Z,20.13
2017-05-14T08:18:54.831Z,20.17
2017-05-14T08:20:03.878Z,20.11
2017-05-14T08:21:12.926Z,20.13
2017-05-14T08:22:21.895Z,20.21
2017-05-14T08:23:30.858Z,20.29
2017-05-14T08:24:40.067Z,20.36
2017-05-14T08:25:49.036Z,20.39
2017-05-14T08:26:57.993Z,20.48
2017-05-14T08:28:06.965Z,20.47
2017-05-14T08:29:16.017Z,20.47
2017-05-14T08:30:25.226Z,20.51
2017-05-14T08:31:34.187Z,20.58
2017-05-14T08:32:43.152Z,20.66
2017-05-14T08:33:52.118Z,20.77
2017-05-14T08:35:01.401Z,20.8
2017-05-14T08:36:10.613Z,20.77
2017-05-14T08:37:19.577Z,20.85
2017-05-14T08:38:28.540Z,20.89
2017-05-14T08:39:37.505Z,20.92
2017-05-14T08:40:46.466Z,20.91
2017-05-14T08:41:55.677Z,20.98
2017-05-14T08:43:04.642Z,21.13
2017-05-14T08:44:13.607Z,21.1
2017-05-14T08:45:22.567Z,21.13
2017-05-14T08:46:31.624Z,21.06
2017-05-14T08:47:40.834Z,21.17
2017-05-14T08:48:49.791Z,21.28
2017-05-14T08:49:58.754Z,21.29
2017-05-14T08:51:07.722Z,21.37
2017-05-14T08:52:16.690Z,21.46
2017-05-14T08:53:25.949Z,21.42
2017-05-14T08:54:34.914Z,21.43
2017-05-14T08:55:43.872Z,21.43
2017-05-14T08:56:52.830Z,21.44
2017-05-14T08:58:01.792Z,21.42
2017-05-14T08:59:10.758Z,21.49
2017-05-14T09:00:19.721Z,21.43
2017-05-14T09:01:28.682Z,21.49
2017-05-14T09:02:37.649Z,21.56
2017-05-14T09:03:46.617Z,21.56
2017-05-14T09:04:55.829Z,21.61
2017-05-14T09:06:04.787Z,21.61
2017-05-14T09:07:13.751Z,21.62
2017-05-14T09:08:22.713Z,21.59
2017-05-14T09:09:31.675Z,21.69
2017-05-14T09:10:40.889Z,21.65
2017-05-14T09:11:49.853Z,21.64
2017-05-14T09:12:58.816Z,21.59
2017-05-14T09:14:07.787Z,21.61
2017-05-14T09:15:16.748Z,21.58
2017-05-14T09:16:25.962Z,21.62
2017-05-14T09:17:35.013Z,21.56
2017-05-14T09:18:43.974Z,21.62
2017-05-14T09:19:52.935Z,21.68
2017-05-14T09:21:01.904Z,21.67
2017-05-14T09:22:11.164Z,21.64
2017-05-14T09:23:20.468Z,21.71
2017-05-14T09:24:29.430Z,21.83
2017-05-14T09:25:38.396Z,21.79
2017-05-14T09:26:47.370Z,21.69
2017-05-14T09:27:56.584Z,21.77
2017-05-14T09:29:05.544Z,21.75
2017-05-14T09:30:14.503Z,21.79
2017-05-14T09:31:23.466Z,21.83
2017-05-14T09:32:32.485Z,21.84
2017-05-14T09:33:41.788Z,21.9
2017-05-14T09:34:50.748Z,21.99
2017-05-14T09:36:00.038Z,22.06
2017-05-14T09:37:09.001Z,22.09
2017-05-14T09:38:17.968Z,22.1
2017-05-14T09:39:27.266Z,22.17
2017-05-14T09:40:36.229Z,22.21
2017-05-14T09:41:45.193Z,22.15
2017-05-14T09:42:54.241Z,22.17
2017-05-14T09:44:03.215Z,22.15
2017-05-14T09:45:12.429Z,22.18
2017-05-14T09:46:21.393Z,22.22
2017-05-14T09:47:30.358Z,22.36
2017-05-14T09:48:39.411Z,22.37
2017-05-14T09:49:48.385Z,22.42
2017-05-14T09:50:57.931Z,22.47
2017-05-14T09:52:06.897Z,22.51
2017-05-14T09:53:15.856Z,22.57
2017-05-14T09:54:24.816Z,22.55
2017-05-14T09:55:33.778Z,22.6
2017-05-14T09:56:42.989Z,22.68
2017-05-14T09:57:51.956Z,22.62
2017-05-14T09:59:00.919Z,22.55
2017-05-14T10:00:09.978Z,22.55
2017-05-14T10:01:18.942Z,22.65
2017-05-14T10:02:28.152Z,22.62
2017-05-14T10:03:37.115Z,22.75
2017-05-14T10:04:46.082Z,22.73
2017-05-14T10:05:55.380Z,22.7
2017-05-14T10:07:04.343Z,22.76
2017-05-14T10:08:13.555Z,22.72
2017-05-14T10:09:22.517Z,22.67
2017-05-14T10:10:31.489Z,22.85
2017-05-14T10:11:40.546Z,22.82
2017-05-14T10:12:49.506Z,22.83
2017-05-14T10:13:58.727Z,22.88
2017-05-14T10:15:07.734Z,22.9
2017-05-14T10:16:16.702Z,22.95
2017-05-14T10:17:25.663Z,22.94
2017-05-14T10:18:34.629Z,23.01
2017-05-14T10:19:43.839Z,22.91
2017-05-14T10:20:52.805Z,22.97
2017-05-14T10:22:01.766Z,23
2017-05-14T10:23:10.731Z,23.05
2017-05-14T10:24:19.735Z,23
2017-05-14T10:25:28.962Z,23.07
2017-05-14T10:26:38.016Z,23.15
2017-05-14T10:27:46.981Z,23.17
2017-05-14T10:28:55.946Z,23.28
2017-05-14T10:30:04.911Z,23.27
2017-05-14T10:31:14.123Z,23.23
2017-05-14T10:32:23.089Z,23.15
2017-05-14T10:33:32.058Z,23.07
2017-05-14T10:34:41.021Z,23.12
2017-05-14T10:35:50.000Z,22.92
2017-05-14T10:36:59.210Z,22.9
2017-05-14T10:38:08.172Z,22.91
2017-05-14T10:39:17.131Z,22.92
2017-05-14T10:40:26.110Z,22.91
2017-05-14T10:41:35.068Z,22.91
2017-05-14T10:42:44.369Z,23.07
2017-05-14T10:43:53.332Z,23.1
2017-05-14T10:45:02.297Z,23.16
2017-05-14T10:46:11.352Z,23.33
2017-05-14T10:47:20.319Z,23.33
2017-05-14T10:48:29.539Z,23.36
2017-05-14T10:49:38.507Z,23.51
2017-05-14T10:50:47.473Z,23.58
2017-05-14T10:51:56.432Z,23.47
2017-05-14T10:53:05.393Z,23.39
2017-05-14T10:54:14.935Z,23.43
2017-05-14T10:55:24.224Z,23.35
2017-05-14T10:56:33.201Z,23.25
2017-05-14T10:57:42.165Z,23.32
2017-05-14T10:58:51.219Z,23.36
2017-05-14T11:00:00.433Z,23.32
2017-05-14T11:01:09.400Z,23.47
2017-05-14T11:02:18.373Z,23.54
2017-05-14T11:03:27.338Z,23.58
2017-05-14T11:04:36.306Z,23.57
2017-05-14T11:05:45.517Z,23.68
2017-05-14T11:06:54.481Z,23.7
2017-05-14T11:08:03.451Z,23.68
2017-05-14T11:09:12.415Z,23.75
2017-05-14T11:10:21.378Z,23.8
2017-05-14T11:11:30.596Z,23.9
2017-05-14T11:12:39.646Z,23.94
2017-05-14T11:13:48.620Z,23.98
2017-05-14T11:14:57.582Z,24.06
2017-05-14T11:16:06.544Z,24
2017-05-14T11:17:15.756Z,24.1
2017-05-14T11:18:24.722Z,24.03
2017-05-14T11:19:33.690Z,24.02
2017-05-14T11:20:42.737Z,23.94
2017-05-14T11:21:51.704Z,24.05
2017-05-14T11:23:00.920Z,24.12
2017-05-14T11:24:09.882Z,24.03
2017-05-14T11:25:19.172Z,23.97
2017-05-14T11:26:28.137Z,23.88
2017-05-14T11:27:37.105Z,23.84
2017-05-14T11:28:46.356Z,23.91
2017-05-14T11:29:55.320Z,23.84
2017-05-14T11:31:04.286Z,23.83
2017-05-14T11:32:13.299Z,23.78
2017-05-14T11:33:22.264Z,23.75
2017-05-14T11:34:31.487Z,23.8
2017-05-14T11:35:40.449Z,23.8
2017-05-14T11:36:49.408Z,23.75
2017-05-14T11:37:58.372Z,23.78
2017-05-14T11:39:07.663Z,23.61
2017-05-14T11:40:16.884Z,23.69
2017-05-14T11:41:25.851Z,23.69
2017-05-14T11:42:34.815Z,23.8
2017-05-14T11:43:43.784Z,23.75
2017-05-14T11:44:52.746Z,23.8
2017-05-14T11:46:01.959Z,23.84
2017-05-14T11:47:10.926Z,23.91
2017-05-14T11:48:19.894Z,23.94
2017-05-14T11:49:28.949Z,23.97
2017-05-14T11:50:37.917Z,24.05
2017-05-14T11:51:47.185Z,24.03
2017-05-14T11:52:56.152Z,24.03
2017-05-14T11:54:05.116Z,23.97
2017-05-14T11:55:14.075Z,23.93
2017-05-14T11:56:23.038Z,23.85
2017-05-14T11:57:32.255Z,23.87
2017-05-14T11:58:41.231Z,23.85
2017-05-14T11:59:50.243Z,23.88
2017-05-14T12:00:59.254Z,23.87
2017-05-14T12:02:08.304Z,23.76
2017-05-14T12:03:17.517Z,23.8
2017-05-14T12:04:26.486Z,23.83
2017-05-14T12:05:35.452Z,23.8
2017-05-14T12:06:44.415Z,23.85
2017-05-14T12:07:53.381Z,23.84
2017-05-14T12:09:02.599Z,23.76
2017-05-14T12:10:11.559Z,23.8
2017-05-14T12:11:20.531Z,23.85
2017-05-14T12:12:29.506Z,23.91
2017-05-14T12:13:38.470Z,23.9
2017-05-14T12:14:47.685Z,23.95
2017-05-14T12:15:56.973Z,23.88
2017-05-14T12:17:05.936Z,23.84
2017-05-14T12:18:14.917Z,23.68
2017-05-14T12:19:23.883Z,23.61
2017-05-14T12:20:33.099Z,23.53
2017-05-14T12:21:42.169Z,23.53
2017-05-14T12:22:51.131Z,23.46
2017-05-14T12:24:00.098Z,23.39
2017-05-14T12:25:09.062Z,23.46
2017-05-14T12:26:18.275Z,23.36
2017-05-14T12:27:27.283Z,23.33
2017-05-14T12:28:36.243Z,23.32
2017-05-14T12:29:45.293Z,23.31
2017-05-14T12:30:54.248Z,23.25
2017-05-14T12:32:03.460Z,23.22
2017-05-14T12:33:12.426Z,23.22
2017-05-14T12:34:21.395Z,23.2
2017-05-14T12:35:30.361Z,23.19
2017-05-14T12:36:39.327Z,23.12
2017-05-14T12:37:48.540Z,23.15
2017-05-14T12:38:57.505Z,23.13
2017-05-14T12:40:06.475Z,23.07
2017-05-14T12:41:15.445Z,23.01
2017-05-14T12:42:24.418Z,23
2017-05-14T12:43:33.632Z,23.04
2017-05-14T12:44:42.597Z,23.04
2017-05-14T12:45:51.573Z,23
2017-05-14T12:47:00.545Z,22.9
2017-05-14T12:48:09.519Z,22.83
2017-05-14T12:49:18.736Z,22.82
2017-05-14T12:50:28.033Z,22.86
2017-05-14T12:51:37.087Z,22.76
2017-05-14T12:52:46.055Z,22.91
2017-05-14T12:53:55.109Z,22.86
2017-05-14T12:55:04.329Z,22.72
2017-05-14T12:56:13.294Z,22.7
2017-05-14T12:57:22.257Z,22.64
2017-05-14T12:58:31.309Z,22.73
2017-05-14T12:59:40.278Z,22.68
2017-05-14T13:00:49.539Z,22.67
2017-05-14T13:01:58.505Z,22.75
2017-05-14T13:03:07.555Z,22.62
2017-05-14T13:04:16.839Z,22.68
2017-05-14T13:05:26.129Z,22.64
2017-05-14T13:06:35.339Z,22.57
2017-05-14T13:07:44.336Z,22.54
2017-05-14T13:08:53.298Z,22.54
2017-05-14T13:10:02.265Z,22.57
2017-05-14T13:11:11.316Z,22.49
2017-05-14T13:12:20.532Z,22.47
2017-05-14T13:13:29.583Z,22.4
2017-05-14T13:14:38.548Z,22.35
2017-05-14T13:15:47.518Z,22.33
2017-05-14T13:16:56.484Z,22.35
2017-05-14T13:18:05.699Z,22.27
2017-05-14T13:19:14.660Z,22.22
2017-05-14T13:20:23.620Z,22.15
2017-05-14T13:21:32.583Z,22.1
2017-05-14T13:22:41.546Z,22.12
2017-05-14T13:23:50.762Z,22.02
2017-05-14T13:24:59.729Z,22
2017-05-14T13:26:08.696Z,22.03
2017-05-14T13:27:17.671Z,22
2017-05-14T13:28:26.635Z,21.84
2017-05-14T13:29:35.936Z,21.77
2017-05-14T13:30:44.900Z,21.74
2017-05-14T13:31:53.865Z,21.74
2017-05-14T13:33:02.827Z,21.56
2017-05-14T13:34:11.791Z,21.61
2017-05-14T13:35:21.144Z,21.65
2017-05-14T13:36:30.106Z,21.49
2017-05-14T13:37:39.077Z,21.52
2017-05-14T13:38:48.369Z,21.43
2017-05-14T13:39:57.334Z,21.32
2017-05-14T13:41:06.600Z,21.27
2017-05-14T13:42:15.560Z,21.27
2017-05-14T13:43:24.525Z,21.19
2017-05-14T13:44:33.489Z,21.19
2017-05-14T13:45:42.457Z,21.16
2017-05-14T13:46:51.671Z,21.22
2017-05-14T13:48:00.638Z,21.17
2017-05-14T13:49:09.602Z,21.12
2017-05-14T13:50:18.568Z,21.16
2017-05-14T13:51:27.536Z,21.07
2017-05-14T13:52:36.839Z,21.07
2017-05-14T13:53:46.130Z,21.09
2017-05-14T13:54:55.093Z,21.07
2017-05-14T13:56:04.058Z,21.01
2017-05-14T13:57:13.024Z,21.06
2017-05-14T13:58:22.288Z,21.1
2017-05-14T13:59:31.252Z,20.99
2017-05-14T14:00:40.220Z,20.99
2017-05-14T14:01:49.187Z,20.98
2017-05-14T14:02:58.153Z,20.92
2017-05-14T14:04:07.366Z,20.92
2017-05-14T14:05:16.423Z,20.94
2017-05-14T14:06:25.727Z,20.98
2017-05-14T14:07:34.688Z,20.88
2017-05-14T14:08:43.649Z,20.94
2017-05-14T14:09:52.951Z,20.92
2017-05-14T14:11:01.963Z,20.8
2017-05-14T14:12:11.250Z,20.74
2017-05-14T14:13:20.254Z,20.64
2017-05-14T14:14:29.216Z,20.43
2017-05-14T14:15:38.430Z,20.41
2017-05-14T14:16:47.396Z,20.21
2017-05-14T14:17:56.362Z,20.11
2017-05-14T14:19:05.647Z,19.87
2017-05-14T14:20:14.701Z,19.71
2017-05-14T14:21:24.000Z,19.65
2017-05-14T14:22:32.960Z,19.61
2017-05-14T14:23:41.919Z,19.66
2017-05-14T14:24:50.877Z,19.5
2017-05-14T14:25:59.843Z,19.36
2017-05-14T14:27:09.143Z,19.28
2017-05-14T14:28:18.102Z,19.28
2017-05-14T14:29:27.062Z,19.37
2017-05-14T14:30:36.026Z,19.32
2017-05-14T14:31:45.071Z,19.22
2017-05-14T14:32:54.619Z,19.23
2017-05-14T14:34:03.669Z,19.18
2017-05-14T14:35:12.633Z,19.23
2017-05-14T14:36:21.600Z,19.16
2017-05-14T14:37:30.562Z,19.13
2017-05-14T14:38:39.777Z,19.14
2017-05-14T14:39:48.738Z,18.94
2017-05-14T14:40:57.695Z,18.99
2017-05-14T14:42:06.658Z,18.95
2017-05-14T14:43:15.625Z,18.78
2017-05-14T14:44:24.883Z,18.69
2017-05-14T14:45:33.848Z,18.63
2017-05-14T14:46:42.810Z,18.67
2017-05-14T14:47:51.776Z,18.7
2017-05-14T14:49:00.734Z,18.72
2017-05-14T14:50:09.953Z,18.67
2017-05-14T14:51:18.919Z,18.62
2017-05-14T14:52:27.884Z,18.65